Aviation Digital Data Service (ADDS)

Output produced by METARs form (1050 UTC 17 June 2019)
found at http://www.aviationweather.gov/metar/data/
 
Forecast for: OEKM (KHAMIS MUSHAIT A, SA)
Text: TAF OEKM 170500Z 1706/1715 03013KT 7000 FEW020 SCT080
Forecast period: 0600 to 0800 UTC 17 June 2019
Forecast type: FROM: standard forecast or significant change
Winds: from the NNE (30 degrees) at 15 MPH (13 knots; 6.7 m/s)
Visibility: 4 miles (7 km)
Ceiling: at least 12,000 feet AGL
Clouds: few clouds at 2000 feet AGL
scattered clouds at 8000 feet AGL
Weather: no significant weather forecast for this period
Text: BECMG 1708/1710 23015KT
Forecast period: 0800 to 1500 UTC 17 June 2019
Forecast type: BECOMING: Conditions expected to become as follows by 1000 UTC 17 June 2019
Winds: from the SW (230 degrees) at 17 MPH (15 knots; 7.7 m/s)
Visibility: 4 miles (7 km)
Ceiling: at least 12,000 feet AGL
Clouds: few clouds at 2000 feet AGL
scattered clouds at 8000 feet AGL
Weather: no significant weather forecast for this period
Text: TEMPO 1709/1715 TSRA SCT020 FEW025CB
Forecast period: 0900 to 1500 UTC 17 June 2019
Forecast type: TEMPORARY: The following changes expected for less than half the time period
Visibility: missing
Ceiling: at least 12,000 feet AGL
Clouds: scattered clouds at 2000 feet AGL
few clouds at 2500 feet AGL
Weather: TSRA  (rain associated with thunderstorm(s))